Avery, California
Current Conditions -  °F | °C
As of 5:15 PM on Tuesday 27 Jan 2015 (Local Time) from KO22 Reporting Station
Clear Clear  
Wind Chill: 55°   Ceiling: Unl
Heat Index: 55°   Visibility: 10mi
Dew Point: 48°   Wind: 5mph
Humidity: 77%   Direction: 270°W
Pressure: 30.21"   Gusts: NA
Location:  38.2°N, 120.37°W
Report Text: KO22 280115Z AUTO 27004KT 10SM CLR 13/09 A3021 RMK AO1
Loading
Personal Weather Stations






























Interactive Weather Map New forecast layout! Learn more

10-Day Weather Forecast

Advertisements
Track Severe Weather on mobile